sensor_id;sensor_type;location;lat;lon;timestamp;P1;durP1;ratioP1;P2;durP2;ratioP2
54177;SDS011;40085;53.004;6.770;2023-04-15T00:01:59;3.53;;;1.52;;
54177;SDS011;40085;53.004;6.770;2023-04-15T00:04:24;8.13;;;1.63;;
54177;SDS011;40085;53.004;6.770;2023-04-15T00:06:51;6.00;;;1.80;;
54177;SDS011;40085;53.004;6.770;2023-04-15T00:09:19;2.65;;;1.55;;
54177;SDS011;40085;53.004;6.770;2023-04-15T00:11:45;2.15;;;1.23;;
54177;SDS011;40085;53.004;6.770;2023-04-15T00:14:11;3.97;;;2.00;;
54177;SDS011;40085;53.004;6.770;2023-04-15T00:16:37;2.83;;;1.55;;
54177;SDS011;40085;53.004;6.770;2023-04-15T00:19:03;3.75;;;1.58;;
54177;SDS011;40085;53.004;6.770;2023-04-15T00:21:29;1.95;;;1.40;;
54177;SDS011;40085;53.004;6.770;2023-04-15T00:23:55;3.05;;;1.48;;
54177;SDS011;40085;53.004;6.770;2023-04-15T00:26:20;5.03;;;1.48;;
54177;SDS011;40085;53.004;6.770;2023-04-15T00:28:46;2.88;;;1.70;;
54177;SDS011;40085;53.004;6.770;2023-04-15T00:31:12;6.40;;;1.80;;
54177;SDS011;40085;53.004;6.770;2023-04-15T00:33:38;6.07;;;2.03;;
54177;SDS011;40085;53.004;6.770;2023-04-15T00:36:05;5.22;;;1.70;;
54177;SDS011;40085;53.004;6.770;2023-04-15T00:38:30;4.45;;;1.75;;
54177;SDS011;40085;53.004;6.770;2023-04-15T00:40:56;5.25;;;1.73;;
54177;SDS011;40085;53.004;6.770;2023-04-15T00:43:22;4.80;;;2.08;;
54177;SDS011;40085;53.004;6.770;2023-04-15T00:45:48;4.57;;;2.33;;
54177;SDS011;40085;53.004;6.770;2023-04-15T00:48:17;2.28;;;1.42;;
54177;SDS011;40085;53.004;6.770;2023-04-15T00:50:44;3.17;;;1.58;;
54177;SDS011;40085;53.004;6.770;2023-04-15T00:53:09;3.67;;;1.52;;
54177;SDS011;40085;53.004;6.770;2023-04-15T00:55:35;4.40;;;1.85;;
54177;SDS011;40085;53.004;6.770;2023-04-15T00:58:02;2.40;;;1.70;;
54177;SDS011;40085;53.004;6.770;2023-04-15T01:00:28;2.83;;;1.40;;
54177;SDS011;40085;53.004;6.770;2023-04-15T01:02:54;4.85;;;2.10;;
54177;SDS011;40085;53.004;6.770;2023-04-15T01:05:20;3.17;;;1.88;;
54177;SDS011;40085;53.004;6.770;2023-04-15T01:07:45;3.70;;;1.83;;
54177;SDS011;40085;53.004;6.770;2023-04-15T01:10:12;4.07;;;2.17;;
54177;SDS011;40085;53.004;6.770;2023-04-15T01:12:38;6.00;;;2.05;;
54177;SDS011;40085;53.004;6.770;2023-04-15T01:15:04;6.28;;;2.40;;
54177;SDS011;40085;53.004;6.770;2023-04-15T01:17:30;3.75;;;1.98;;
54177;SDS011;40085;53.004;6.770;2023-04-15T01:19:56;3.40;;;2.08;;
54177;SDS011;40085;53.004;6.770;2023-04-15T01:22:23;4.20;;;1.98;;
54177;SDS011;40085;53.004;6.770;2023-04-15T01:24:53;5.00;;;2.25;;
54177;SDS011;40085;53.004;6.770;2023-04-15T01:27:26;3.90;;;2.33;;
54177;SDS011;40085;53.004;6.770;2023-04-15T01:29:51;6.53;;;2.65;;
54177;SDS011;40085;53.004;6.770;2023-04-15T01:32:17;4.00;;;1.92;;
54177;SDS011;40085;53.004;6.770;2023-04-15T01:34:43;3.53;;;2.10;;
54177;SDS011;40085;53.004;6.770;2023-04-15T01:37:09;5.10;;;2.42;;
54177;SDS011;40085;53.004;6.770;2023-04-15T01:39:35;3.90;;;2.00;;
54177;SDS011;40085;53.004;6.770;2023-04-15T01:42:01;3.70;;;2.00;;
54177;SDS011;40085;53.004;6.770;2023-04-15T01:44:27;7.57;;;2.25;;
54177;SDS011;40085;53.004;6.770;2023-04-15T01:46:52;6.22;;;2.75;;
54177;SDS011;40085;53.004;6.770;2023-04-15T01:49:18;3.45;;;2.17;;
54177;SDS011;40085;53.004;6.770;2023-04-15T01:51:44;4.78;;;1.95;;
54177;SDS011;40085;53.004;6.770;2023-04-15T01:54:09;8.57;;;3.00;;
54177;SDS011;40085;53.004;6.770;2023-04-15T01:56:35;3.47;;;2.08;;
54177;SDS011;40085;53.004;6.770;2023-04-15T01:59:01;4.38;;;1.67;;
54177;SDS011;40085;53.004;6.770;2023-04-15T02:01:27;3.63;;;2.03;;
54177;SDS011;40085;53.004;6.770;2023-04-15T02:03:53;3.67;;;2.10;;
54177;SDS011;40085;53.004;6.770;2023-04-15T02:06:18;4.78;;;2.15;;
54177;SDS011;40085;53.004;6.770;2023-04-15T02:08:45;4.57;;;2.33;;
54177;SDS011;40085;53.004;6.770;2023-04-15T02:11:10;4.88;;;2.38;;
54177;SDS011;40085;53.004;6.770;2023-04-15T02:13:36;5.43;;;2.33;;
54177;SDS011;40085;53.004;6.770;2023-04-15T02:16:02;3.13;;;2.00;;
54177;SDS011;40085;53.004;6.770;2023-04-15T02:18:27;3.33;;;2.10;;
54177;SDS011;40085;53.004;6.770;2023-04-15T02:20:53;3.80;;;2.50;;
54177;SDS011;40085;53.004;6.770;2023-04-15T02:23:21;5.60;;;2.67;;
54177;SDS011;40085;53.004;6.770;2023-04-15T02:25:46;5.15;;;2.88;;
54177;SDS011;40085;53.004;6.770;2023-04-15T02:28:12;4.40;;;2.42;;
54177;SDS011;40085;53.004;6.770;2023-04-15T02:30:37;6.63;;;2.45;;
54177;SDS011;40085;53.004;6.770;2023-04-15T02:33:04;4.10;;;2.20;;
54177;SDS011;40085;53.004;6.770;2023-04-15T02:35:31;4.75;;;2.30;;
54177;SDS011;40085;53.004;6.770;2023-04-15T02:37:57;7.00;;;2.63;;
54177;SDS011;40085;53.004;6.770;2023-04-15T02:40:23;4.32;;;2.38;;
54177;SDS011;40085;53.004;6.770;2023-04-15T02:42:48;7.82;;;2.67;;
54177;SDS011;40085;53.004;6.770;2023-04-15T02:45:14;7.45;;;2.90;;
54177;SDS011;40085;53.004;6.770;2023-04-15T02:47:40;4.63;;;2.53;;
54177;SDS011;40085;53.004;6.770;2023-04-15T02:50:07;5.05;;;2.50;;
54177;SDS011;40085;53.004;6.770;2023-04-15T02:52:33;5.38;;;2.58;;
54177;SDS011;40085;53.004;6.770;2023-04-15T02:54:59;5.88;;;2.78;;
54177;SDS011;40085;53.004;6.770;2023-04-15T02:57:26;4.97;;;2.30;;
54177;SDS011;40085;53.004;6.770;2023-04-15T02:59:53;9.05;;;2.72;;
54177;SDS011;40085;53.004;6.770;2023-04-15T03:02:19;7.57;;;2.67;;
54177;SDS011;40085;53.004;6.770;2023-04-15T03:04:44;5.18;;;2.85;;
54177;SDS011;40085;53.004;6.770;2023-04-15T03:07:10;4.25;;;2.55;;
54177;SDS011;40085;53.004;6.770;2023-04-15T03:09:36;8.10;;;3.33;;
54177;SDS011;40085;53.004;6.770;2023-04-15T03:12:03;4.53;;;2.47;;
54177;SDS011;40085;53.004;6.770;2023-04-15T03:14:29;6.40;;;2.45;;
54177;SDS011;40085;53.004;6.770;2023-04-15T03:16:54;4.93;;;2.92;;
54177;SDS011;40085;53.004;6.770;2023-04-15T03:19:20;5.72;;;2.95;;
54177;SDS011;40085;53.004;6.770;2023-04-15T03:21:46;5.80;;;2.47;;
54177;SDS011;40085;53.004;6.770;2023-04-15T03:24:11;5.68;;;2.90;;
54177;SDS011;40085;53.004;6.770;2023-04-15T03:26:37;4.93;;;2.88;;
54177;SDS011;40085;53.004;6.770;2023-04-15T03:29:02;5.75;;;3.30;;
54177;SDS011;40085;53.004;6.770;2023-04-15T03:31:28;3.90;;;2.28;;
54177;SDS011;40085;53.004;6.770;2023-04-15T03:33:54;7.22;;;2.85;;
54177;SDS011;40085;53.004;6.770;2023-04-15T03:36:19;6.65;;;2.95;;
54177;SDS011;40085;53.004;6.770;2023-04-15T03:38:45;4.57;;;2.97;;
54177;SDS011;40085;53.004;6.770;2023-04-15T03:41:11;6.10;;;2.75;;
54177;SDS011;40085;53.004;6.770;2023-04-15T03:43:37;7.10;;;3.22;;
54177;SDS011;40085;53.004;6.770;2023-04-15T03:46:02;4.82;;;2.80;;
54177;SDS011;40085;53.004;6.770;2023-04-15T03:48:28;4.10;;;2.55;;
54177;SDS011;40085;53.004;6.770;2023-04-15T03:50:54;5.85;;;3.03;;
54177;SDS011;40085;53.004;6.770;2023-04-15T03:53:20;5.80;;;2.83;;
54177;SDS011;40085;53.004;6.770;2023-04-15T03:55:45;6.22;;;3.13;;
54177;SDS011;40085;53.004;6.770;2023-04-15T03:58:11;5.53;;;2.88;;
54177;SDS011;40085;53.004;6.770;2023-04-15T04:00:37;4.28;;;2.55;;
54177;SDS011;40085;53.004;6.770;2023-04-15T04:03:03;6.20;;;3.25;;
54177;SDS011;40085;53.004;6.770;2023-04-15T04:05:29;6.15;;;3.25;;
54177;SDS011;40085;53.004;6.770;2023-04-15T04:07:55;6.13;;;2.88;;
54177;SDS011;40085;53.004;6.770;2023-04-15T04:10:21;5.13;;;2.63;;
54177;SDS011;40085;53.004;6.770;2023-04-15T04:12:46;5.00;;;2.63;;
54177;SDS011;40085;53.004;6.770;2023-04-15T04:15:12;9.63;;;3.40;;
54177;SDS011;40085;53.004;6.770;2023-04-15T04:17:37;4.88;;;2.80;;
54177;SDS011;40085;53.004;6.770;2023-04-15T04:20:03;4.40;;;2.58;;
54177;SDS011;40085;53.004;6.770;2023-04-15T04:22:29;6.22;;;3.30;;
54177;SDS011;40085;53.004;6.770;2023-04-15T04:24:55;6.35;;;3.45;;
54177;SDS011;40085;53.004;6.770;2023-04-15T04:27:23;9.68;;;3.58;;
54177;SDS011;40085;53.004;6.770;2023-04-15T04:29:49;5.13;;;2.92;;
54177;SDS011;40085;53.004;6.770;2023-04-15T04:32:14;10.48;;;3.92;;
54177;SDS011;40085;53.004;6.770;2023-04-15T04:34:40;13.23;;;4.30;;
54177;SDS011;40085;53.004;6.770;2023-04-15T04:37:05;8.02;;;3.63;;
54177;SDS011;40085;53.004;6.770;2023-04-15T04:39:31;7.03;;;3.50;;
54177;SDS011;40085;53.004;6.770;2023-04-15T04:41:57;7.03;;;3.95;;
54177;SDS011;40085;53.004;6.770;2023-04-15T04:44:22;11.60;;;4.20;;
54177;SDS011;40085;53.004;6.770;2023-04-15T04:46:48;12.85;;;4.93;;
54177;SDS011;40085;53.004;6.770;2023-04-15T04:49:13;7.63;;;4.32;;
54177;SDS011;40085;53.004;6.770;2023-04-15T04:51:39;11.52;;;5.05;;
54177;SDS011;40085;53.004;6.770;2023-04-15T04:54:05;9.40;;;4.88;;
54177;SDS011;40085;53.004;6.770;2023-04-15T04:56:30;7.10;;;4.03;;
54177;SDS011;40085;53.004;6.770;2023-04-15T04:58:58;10.85;;;5.03;;
54177;SDS011;40085;53.004;6.770;2023-04-15T05:01:23;8.23;;;4.00;;
54177;SDS011;40085;53.004;6.770;2023-04-15T05:03:51;7.88;;;4.70;;
54177;SDS011;40085;53.004;6.770;2023-04-15T05:06:17;9.50;;;5.35;;
54177;SDS011;40085;53.004;6.770;2023-04-15T05:08:42;10.43;;;4.72;;
54177;SDS011;40085;53.004;6.770;2023-04-15T05:11:08;8.23;;;4.78;;
54177;SDS011;40085;53.004;6.770;2023-04-15T05:13:33;9.02;;;5.00;;
54177;SDS011;40085;53.004;6.770;2023-04-15T05:16:02;12.25;;;5.20;;
54177;SDS011;40085;53.004;6.770;2023-04-15T05:18:29;7.82;;;4.35;;
54177;SDS011;40085;53.004;6.770;2023-04-15T05:20:55;8.55;;;4.65;;
54177;SDS011;40085;53.004;6.770;2023-04-15T05:23:20;8.85;;;4.28;;
54177;SDS011;40085;53.004;6.770;2023-04-15T05:25:46;9.52;;;3.88;;
54177;SDS011;40085;53.004;6.770;2023-04-15T05:28:11;11.40;;;4.30;;
54177;SDS011;40085;53.004;6.770;2023-04-15T05:30:37;7.97;;;4.68;;
54177;SDS011;40085;53.004;6.770;2023-04-15T05:33:03;10.57;;;4.78;;
54177;SDS011;40085;53.004;6.770;2023-04-15T05:35:29;9.40;;;4.80;;
54177;SDS011;40085;53.004;6.770;2023-04-15T05:37:54;9.30;;;4.72;;
54177;SDS011;40085;53.004;6.770;2023-04-15T05:40:20;11.05;;;5.43;;
54177;SDS011;40085;53.004;6.770;2023-04-15T05:42:46;8.85;;;4.53;;
54177;SDS011;40085;53.004;6.770;2023-04-15T05:45:11;6.88;;;4.13;;
54177;SDS011;40085;53.004;6.770;2023-04-15T05:47:37;10.48;;;4.82;;
54177;SDS011;40085;53.004;6.770;2023-04-15T05:50:04;7.07;;;3.88;;
54177;SDS011;40085;53.004;6.770;2023-04-15T05:52:30;10.43;;;4.55;;
54177;SDS011;40085;53.004;6.770;2023-04-15T05:54:56;9.02;;;4.22;;
54177;SDS011;40085;53.004;6.770;2023-04-15T05:57:22;8.60;;;4.60;;
54177;SDS011;40085;53.004;6.770;2023-04-15T05:59:47;8.07;;;4.70;;
54177;SDS011;40085;53.004;6.770;2023-04-15T06:02:15;7.72;;;4.38;;
54177;SDS011;40085;53.004;6.770;2023-04-15T06:04:41;8.20;;;4.00;;
54177;SDS011;40085;53.004;6.770;2023-04-15T06:07:07;10.15;;;4.72;;
54177;SDS011;40085;53.004;6.770;2023-04-15T06:09:33;10.65;;;4.90;;
54177;SDS011;40085;53.004;6.770;2023-04-15T06:11:59;6.88;;;3.95;;
54177;SDS011;40085;53.004;6.770;2023-04-15T06:14:26;7.70;;;4.32;;
54177;SDS011;40085;53.004;6.770;2023-04-15T06:16:51;8.63;;;4.20;;
54177;SDS011;40085;53.004;6.770;2023-04-15T06:19:17;7.55;;;4.03;;
54177;SDS011;40085;53.004;6.770;2023-04-15T06:21:43;6.72;;;3.88;;
54177;SDS011;40085;53.004;6.770;2023-04-15T06:24:10;8.80;;;4.25;;
54177;SDS011;40085;53.004;6.770;2023-04-15T06:26:36;9.52;;;4.03;;
54177;SDS011;40085;53.004;6.770;2023-04-15T06:29:01;9.55;;;4.90;;
54177;SDS011;40085;53.004;6.770;2023-04-15T06:31:27;8.05;;;4.00;;
54177;SDS011;40085;53.004;6.770;2023-04-15T06:33:52;6.70;;;4.03;;
54177;SDS011;40085;53.004;6.770;2023-04-15T06:36:18;12.82;;;4.32;;
54177;SDS011;40085;53.004;6.770;2023-04-15T06:38:44;7.35;;;4.35;;
54177;SDS011;40085;53.004;6.770;2023-04-15T06:41:10;8.57;;;4.25;;
54177;SDS011;40085;53.004;6.770;2023-04-15T06:43:35;7.78;;;4.35;;
54177;SDS011;40085;53.004;6.770;2023-04-15T06:46:01;7.22;;;3.40;;
54177;SDS011;40085;53.004;6.770;2023-04-15T06:48:26;13.15;;;4.20;;
54177;SDS011;40085;53.004;6.770;2023-04-15T06:50:52;7.18;;;3.88;;
54177;SDS011;40085;53.004;6.770;2023-04-15T06:53:17;6.65;;;3.85;;
54177;SDS011;40085;53.004;6.770;2023-04-15T06:55:43;7.47;;;4.03;;
54177;SDS011;40085;53.004;6.770;2023-04-15T06:58:09;8.23;;;4.25;;
54177;SDS011;40085;53.004;6.770;2023-04-15T07:00:34;9.40;;;4.22;;
54177;SDS011;40085;53.004;6.770;2023-04-15T07:03:03;9.50;;;4.00;;
54177;SDS011;40085;53.004;6.770;2023-04-15T07:05:29;6.70;;;3.63;;
54177;SDS011;40085;53.004;6.770;2023-04-15T07:07:56;6.30;;;3.80;;
54177;SDS011;40085;53.004;6.770;2023-04-15T07:10:22;8.32;;;4.13;;
54177;SDS011;40085;53.004;6.770;2023-04-15T07:12:48;6.32;;;3.67;;
54177;SDS011;40085;53.004;6.770;2023-04-15T07:15:15;9.30;;;4.38;;
54177;SDS011;40085;53.004;6.770;2023-04-15T07:17:40;6.70;;;3.75;;
54177;SDS011;40085;53.004;6.770;2023-04-15T07:20:07;8.80;;;4.03;;
54177;SDS011;40085;53.004;6.770;2023-04-15T07:22:33;5.72;;;3.63;;
54177;SDS011;40085;53.004;6.770;2023-04-15T07:24:59;8.18;;;3.47;;
54177;SDS011;40085;53.004;6.770;2023-04-15T07:27:25;7.35;;;3.85;;
54177;SDS011;40085;53.004;6.770;2023-04-15T07:29:51;6.90;;;3.78;;
54177;SDS011;40085;53.004;6.770;2023-04-15T07:32:17;6.20;;;3.78;;
54177;SDS011;40085;53.004;6.770;2023-04-15T07:34:43;5.47;;;3.47;;
54177;SDS011;40085;53.004;6.770;2023-04-15T07:37:09;5.30;;;3.08;;
54177;SDS011;40085;53.004;6.770;2023-04-15T07:39:34;5.80;;;2.75;;
54177;SDS011;40085;53.004;6.770;2023-04-15T07:42:01;7.07;;;3.25;;
54177;SDS011;40085;53.004;6.770;2023-04-15T07:44:27;7.57;;;3.40;;
54177;SDS011;40085;53.004;6.770;2023-04-15T07:46:54;7.10;;;2.53;;
54177;SDS011;40085;53.004;6.770;2023-04-15T07:49:21;5.32;;;2.78;;
54177;SDS011;40085;53.004;6.770;2023-04-15T07:51:48;5.68;;;3.05;;
54177;SDS011;40085;53.004;6.770;2023-04-15T07:54:14;7.63;;;2.88;;
54177;SDS011;40085;53.004;6.770;2023-04-15T07:56:40;3.78;;;2.40;;
54177;SDS011;40085;53.004;6.770;2023-04-15T07:59:06;7.22;;;2.58;;
54177;SDS011;40085;53.004;6.770;2023-04-15T08:01:33;7.13;;;2.45;;
54177;SDS011;40085;53.004;6.770;2023-04-15T08:03:59;5.72;;;2.30;;
54177;SDS011;40085;53.004;6.770;2023-04-15T08:06:25;4.70;;;2.08;;
54177;SDS011;40085;53.004;6.770;2023-04-15T08:08:51;4.35;;;2.60;;
54177;SDS011;40085;53.004;6.770;2023-04-15T08:11:18;3.58;;;1.88;;
54177;SDS011;40085;53.004;6.770;2023-04-15T08:13:44;3.60;;;2.00;;
54177;SDS011;40085;53.004;6.770;2023-04-15T08:16:15;4.78;;;2.63;;
54177;SDS011;40085;53.004;6.770;2023-04-15T08:18:49;3.75;;;2.08;;
54177;SDS011;40085;53.004;6.770;2023-04-15T08:21:16;4.28;;;2.20;;
54177;SDS011;40085;53.004;6.770;2023-04-15T08:23:43;3.75;;;2.13;;
54177;SDS011;40085;53.004;6.770;2023-04-15T08:26:10;3.78;;;2.47;;
54177;SDS011;40085;53.004;6.770;2023-04-15T08:28:39;8.07;;;1.92;;
54177;SDS011;40085;53.004;6.770;2023-04-15T08:31:06;6.15;;;2.17;;
54177;SDS011;40085;53.004;6.770;2023-04-15T08:33:32;4.07;;;1.80;;
54177;SDS011;40085;53.004;6.770;2023-04-15T08:35:58;3.03;;;1.55;;
54177;SDS011;40085;53.004;6.770;2023-04-15T08:38:23;3.40;;;1.73;;
54177;SDS011;40085;53.004;6.770;2023-04-15T08:40:49;2.97;;;1.67;;
54177;SDS011;40085;53.004;6.770;2023-04-15T08:43:18;1.95;;;1.35;;
54177;SDS011;40085;53.004;6.770;2023-04-15T08:45:48;3.42;;;1.92;;
54177;SDS011;40085;53.004;6.770;2023-04-15T08:48:16;3.85;;;1.60;;
54177;SDS011;40085;53.004;6.770;2023-04-15T08:50:42;4.05;;;1.65;;
54177;SDS011;40085;53.004;6.770;2023-04-15T08:53:08;5.03;;;2.13;;
54177;SDS011;40085;53.004;6.770;2023-04-15T08:55:35;2.42;;;1.45;;
54177;SDS011;40085;53.004;6.770;2023-04-15T08:58:02;3.47;;;1.73;;
54177;SDS011;40085;53.004;6.770;2023-04-15T09:00:29;2.15;;;1.38;;
54177;SDS011;40085;53.004;6.770;2023-04-15T09:02:56;2.75;;;1.40;;
54177;SDS011;40085;53.004;6.770;2023-04-15T09:05:23;4.40;;;1.48;;
54177;SDS011;40085;53.004;6.770;2023-04-15T09:07:49;2.10;;;1.33;;
54177;SDS011;40085;53.004;6.770;2023-04-15T09:10:15;2.63;;;1.40;;
54177;SDS011;40085;53.004;6.770;2023-04-15T09:12:41;2.65;;;1.45;;
54177;SDS011;40085;53.004;6.770;2023-04-15T09:15:07;3.13;;;1.30;;
54177;SDS011;40085;53.004;6.770;2023-04-15T09:17:36;2.67;;;1.40;;
54177;SDS011;40085;53.004;6.770;2023-04-15T09:22:38;1.08;;;0.80;;
54177;SDS011;40085;53.004;6.770;2023-04-15T09:27:48;2.78;;;1.40;;
54177;SDS011;40085;53.004;6.770;2023-04-15T09:30:23;2.03;;;1.08;;
54177;SDS011;40085;53.004;6.770;2023-04-15T09:32:50;1.80;;;1.00;;
54177;SDS011;40085;53.004;6.770;2023-04-15T09:35:16;1.48;;;1.02;;
54177;SDS011;40085;53.004;6.770;2023-04-15T09:37:43;4.30;;;1.00;;
54177;SDS011;40085;53.004;6.770;2023-04-15T09:40:08;1.45;;;0.98;;
54177;SDS011;40085;53.004;6.770;2023-04-15T09:42:35;1.50;;;0.70;;
54177;SDS011;40085;53.004;6.770;2023-04-15T09:45:10;0.90;;;0.70;;
54177;SDS011;40085;53.004;6.770;2023-04-15T09:47:36;1.95;;;1.00;;
54177;SDS011;40085;53.004;6.770;2023-04-15T09:50:02;5.55;;;1.20;;
54177;SDS011;40085;53.004;6.770;2023-04-15T09:52:28;1.95;;;1.02;;
54177;SDS011;40085;53.004;6.770;2023-04-15T09:54:56;2.80;;;1.13;;
54177;SDS011;40085;53.004;6.770;2023-04-15T09:57:23;1.48;;;0.82;;
54177;SDS011;40085;53.004;6.770;2023-04-15T09:59:49;1.83;;;1.10;;
54177;SDS011;40085;53.004;6.770;2023-04-15T10:02:17;2.38;;;1.10;;
54177;SDS011;40085;53.004;6.770;2023-04-15T10:04:47;2.03;;;1.02;;
54177;SDS011;40085;53.004;6.770;2023-04-15T10:07:13;1.55;;;0.82;;
54177;SDS011;40085;53.004;6.770;2023-04-15T10:09:39;2.28;;;1.08;;
54177;SDS011;40085;53.004;6.770;2023-04-15T10:12:05;0.98;;;0.73;;
54177;SDS011;40085;53.004;6.770;2023-04-15T10:14:32;2.25;;;1.10;;
54177;SDS011;40085;53.004;6.770;2023-04-15T10:17:02;1.80;;;1.10;;
54177;SDS011;40085;53.004;6.770;2023-04-15T10:19:32;3.00;;;1.40;;
54177;SDS011;40085;53.004;6.770;2023-04-15T10:22:01;1.45;;;1.00;;
54177;SDS011;40085;53.004;6.770;2023-04-15T10:24:29;1.42;;;0.80;;
54177;SDS011;40085;53.004;6.770;2023-04-15T10:26:56;2.90;;;1.10;;
54177;SDS011;40085;53.004;6.770;2023-04-15T10:29:24;2.78;;;0.93;;
54177;SDS011;40085;53.004;6.770;2023-04-15T10:31:55;2.00;;;1.00;;
54177;SDS011;40085;53.004;6.770;2023-04-15T10:34:25;3.70;;;1.25;;
54177;SDS011;40085;53.004;6.770;2023-04-15T10:36:55;1.23;;;0.88;;
54177;SDS011;40085;53.004;6.770;2023-04-15T10:39:41;0.70;;;0.60;;
54177;SDS011;40085;53.004;6.770;2023-04-15T10:42:09;2.22;;;1.08;;
54177;SDS011;40085;53.004;6.770;2023-04-15T10:44:57;1.60;;;0.77;;
54177;SDS011;40085;53.004;6.770;2023-04-15T10:47:24;1.38;;;1.00;;
54177;SDS011;40085;53.004;6.770;2023-04-15T10:52:17;1.45;;;0.80;;
54177;SDS011;40085;53.004;6.770;2023-04-15T10:54:47;0.90;;;0.60;;
54177;SDS011;40085;53.004;6.770;2023-04-15T10:57:14;1.92;;;0.90;;
54177;SDS011;40085;53.004;6.770;2023-04-15T11:03:07;1.70;;;0.98;;
54177;SDS011;40085;53.004;6.770;2023-04-15T11:05:21;1.33;;;0.85;;
54177;SDS011;40085;53.004;6.770;2023-04-15T11:08:05;0.95;;;0.50;;
54177;SDS011;40085;53.004;6.770;2023-04-15T11:12:59;3.20;;;0.90;;
54177;SDS011;40085;53.004;6.770;2023-04-15T11:20:44;2.53;;;0.90;;
54177;SDS011;40085;53.004;6.770;2023-04-15T11:26:00;1.83;;;1.00;;
54177;SDS011;40085;53.004;6.770;2023-04-15T11:28:28;4.18;;;1.40;;
54177;SDS011;40085;53.004;6.770;2023-04-15T11:30:55;1.92;;;0.93;;
54177;SDS011;40085;53.004;6.770;2023-04-15T11:33:22;1.10;;;1.00;;
54177;SDS011;40085;53.004;6.770;2023-04-15T11:35:48;1.75;;;1.17;;
54177;SDS011;40085;53.004;6.770;2023-04-15T11:38:14;1.77;;;1.10;;
54177;SDS011;40085;53.004;6.770;2023-04-15T11:40:41;1.45;;;0.95;;
54177;SDS011;40085;53.004;6.770;2023-04-15T11:45:36;1.35;;;0.75;;
54177;SDS011;40085;53.004;6.770;2023-04-15T11:48:11;2.15;;;1.10;;
54177;SDS011;40085;53.004;6.770;2023-04-15T11:50:37;2.85;;;1.63;;
54177;SDS011;40085;53.004;6.770;2023-04-15T11:53:08;1.35;;;1.00;;
54177;SDS011;40085;53.004;6.770;2023-04-15T11:55:48;1.83;;;0.98;;
54177;SDS011;40085;53.004;6.770;2023-04-15T12:00:46;1.95;;;0.82;;
54177;SDS011;40085;53.004;6.770;2023-04-15T12:03:29;2.80;;;0.80;;
54177;SDS011;40085;53.004;6.770;2023-04-15T12:06:04;1.45;;;1.10;;
54177;SDS011;40085;53.004;6.770;2023-04-15T12:14:08;4.45;;;0.93;;
54177;SDS011;40085;53.004;6.770;2023-04-15T12:16:38;1.67;;;0.77;;
54177;SDS011;40085;53.004;6.770;2023-04-15T12:19:09;2.58;;;0.93;;
54177;SDS011;40085;53.004;6.770;2023-04-15T12:21:37;0.55;;;0.55;;
54177;SDS011;40085;53.004;6.770;2023-04-15T12:24:06;3.78;;;0.93;;
54177;SDS011;40085;53.004;6.770;2023-04-15T12:26:34;1.65;;;0.90;;
54177;SDS011;40085;53.004;6.770;2023-04-15T12:29:06;2.10;;;1.23;;
54177;SDS011;40085;53.004;6.770;2023-04-15T12:31:35;3.38;;;0.80;;
54177;SDS011;40085;53.004;6.770;2023-04-15T12:34:10;1.58;;;0.90;;
54177;SDS011;40085;53.004;6.770;2023-04-15T12:36:36;1.15;;;0.77;;
54177;SDS011;40085;53.004;6.770;2023-04-15T12:39:02;0.45;;;0.45;;
54177;SDS011;40085;53.004;6.770;2023-04-15T12:41:29;1.17;;;0.43;;
54177;SDS011;40085;53.004;6.770;2023-04-15T12:43:55;2.33;;;0.80;;
54177;SDS011;40085;53.004;6.770;2023-04-15T12:46:21;0.80;;;0.52;;
54177;SDS011;40085;53.004;6.770;2023-04-15T12:48:47;3.15;;;0.80;;
54177;SDS011;40085;53.004;6.770;2023-04-15T12:51:13;3.97;;;0.85;;
54177;SDS011;40085;53.004;6.770;2023-04-15T12:53:39;1.38;;;0.50;;
54177;SDS011;40085;53.004;6.770;2023-04-15T12:56:05;2.05;;;0.82;;
54177;SDS011;40085;53.004;6.770;2023-04-15T12:58:31;1.25;;;0.70;;
54177;SDS011;40085;53.004;6.770;2023-04-15T13:00:57;2.03;;;0.80;;
54177;SDS011;40085;53.004;6.770;2023-04-15T13:03:23;1.25;;;0.75;;
54177;SDS011;40085;53.004;6.770;2023-04-15T13:05:48;1.20;;;0.88;;
54177;SDS011;40085;53.004;6.770;2023-04-15T13:08:14;1.20;;;0.70;;
54177;SDS011;40085;53.004;6.770;2023-04-15T13:10:40;9.07;;;0.95;;
54177;SDS011;40085;53.004;6.770;2023-04-15T13:13:06;2.60;;;0.85;;
54177;SDS011;40085;53.004;6.770;2023-04-15T13:15:32;2.88;;;0.95;;
54177;SDS011;40085;53.004;6.770;2023-04-15T13:17:58;2.58;;;1.02;;
54177;SDS011;40085;53.004;6.770;2023-04-15T13:20:24;2.42;;;0.90;;
54177;SDS011;40085;53.004;6.770;2023-04-15T13:22:51;7.32;;;1.20;;
54177;SDS011;40085;53.004;6.770;2023-04-15T13:25:17;0.82;;;0.60;;
54177;SDS011;40085;53.004;6.770;2023-04-15T13:27:43;1.90;;;0.80;;
54177;SDS011;40085;53.004;6.770;2023-04-15T13:30:09;1.20;;;0.65;;
54177;SDS011;40085;53.004;6.770;2023-04-15T13:32:34;3.03;;;0.95;;
54177;SDS011;40085;53.004;6.770;2023-04-15T13:35:00;5.80;;;1.10;;
54177;SDS011;40085;53.004;6.770;2023-04-15T13:37:26;3.58;;;0.88;;
54177;SDS011;40085;53.004;6.770;2023-04-15T13:39:53;1.20;;;0.70;;
54177;SDS011;40085;53.004;6.770;2023-04-15T13:42:19;2.42;;;1.20;;
54177;SDS011;40085;53.004;6.770;2023-04-15T13:44:46;2.38;;;0.77;;
54177;SDS011;40085;53.004;6.770;2023-04-15T13:47:11;4.78;;;1.02;;
54177;SDS011;40085;53.004;6.770;2023-04-15T13:49:38;2.50;;;0.60;;
54177;SDS011;40085;53.004;6.770;2023-04-15T13:52:05;1.77;;;0.60;;
54177;SDS011;40085;53.004;6.770;2023-04-15T13:54:32;2.53;;;0.60;;
54177;SDS011;40085;53.004;6.770;2023-04-15T13:56:57;2.10;;;0.75;;
54177;SDS011;40085;53.004;6.770;2023-04-15T13:59:23;1.63;;;0.77;;
54177;SDS011;40085;53.004;6.770;2023-04-15T14:01:48;2.10;;;0.77;;
54177;SDS011;40085;53.004;6.770;2023-04-15T14:04:14;1.60;;;0.63;;
54177;SDS011;40085;53.004;6.770;2023-04-15T14:06:39;4.00;;;0.90;;
54177;SDS011;40085;53.004;6.770;2023-04-15T14:09:05;2.00;;;0.82;;
54177;SDS011;40085;53.004;6.770;2023-04-15T14:11:31;1.92;;;0.82;;
54177;SDS011;40085;53.004;6.770;2023-04-15T14:13:59;2.40;;;1.00;;
54177;SDS011;40085;53.004;6.770;2023-04-15T14:16:25;3.70;;;1.08;;
54177;SDS011;40085;53.004;6.770;2023-04-15T14:18:50;5.43;;;1.17;;
54177;SDS011;40085;53.004;6.770;2023-04-15T14:21:16;1.63;;;0.88;;
54177;SDS011;40085;53.004;6.770;2023-04-15T14:23:42;0.98;;;0.70;;
54177;SDS011;40085;53.004;6.770;2023-04-15T14:26:07;5.50;;;0.70;;
54177;SDS011;40085;53.004;6.770;2023-04-15T14:28:33;1.13;;;0.70;;
54177;SDS011;40085;53.004;6.770;2023-04-15T14:30:59;2.97;;;0.75;;
54177;SDS011;40085;53.004;6.770;2023-04-15T14:33:25;2.35;;;1.02;;
54177;SDS011;40085;53.004;6.770;2023-04-15T14:35:51;3.95;;;1.50;;
54177;SDS011;40085;53.004;6.770;2023-04-15T14:38:16;8.43;;;1.20;;
54177;SDS011;40085;53.004;6.770;2023-04-15T14:40:45;1.27;;;0.75;;
54177;SDS011;40085;53.004;6.770;2023-04-15T14:43:11;3.53;;;1.60;;
54177;SDS011;40085;53.004;6.770;2023-04-15T14:45:37;1.67;;;1.00;;
54177;SDS011;40085;53.004;6.770;2023-04-15T14:48:08;2.78;;;0.88;;
54177;SDS011;40085;53.004;6.770;2023-04-15T14:50:37;2.33;;;1.10;;
54177;SDS011;40085;53.004;6.770;2023-04-15T14:53:02;1.10;;;1.00;;
54177;SDS011;40085;53.004;6.770;2023-04-15T14:55:28;5.38;;;2.30;;
54177;SDS011;40085;53.004;6.770;2023-04-15T14:57:54;6.20;;;1.85;;
54177;SDS011;40085;53.004;6.770;2023-04-15T15:00:20;5.88;;;2.88;;
54177;SDS011;40085;53.004;6.770;2023-04-15T15:02:45;5.03;;;1.38;;
54177;SDS011;40085;53.004;6.770;2023-04-15T15:05:14;6.30;;;1.58;;
54177;SDS011;40085;53.004;6.770;2023-04-15T15:07:43;4.70;;;1.88;;
54177;SDS011;40085;53.004;6.770;2023-04-15T15:10:08;3.00;;;1.17;;
54177;SDS011;40085;53.004;6.770;2023-04-15T15:12:34;5.43;;;3.22;;
54177;SDS011;40085;53.004;6.770;2023-04-15T15:15:01;4.43;;;1.65;;
54177;SDS011;40085;53.004;6.770;2023-04-15T15:17:26;3.63;;;1.40;;